sensor_id;sensor_type;location;lat;lon;timestamp;temperature;humidity
54006;DHT22;39919;38.160;-122.260;2023-06-24T00:01:05;21.80;60.90
54006;DHT22;39919;38.160;-122.260;2023-06-24T00:03:34;21.80;61.60
54006;DHT22;39919;38.160;-122.260;2023-06-24T00:06:05;21.70;61.60
54006;DHT22;39919;38.160;-122.260;2023-06-24T00:08:36;21.70;61.90
54006;DHT22;39919;38.160;-122.260;2023-06-24T00:11:09;21.60;61.90
54006;DHT22;39919;38.160;-122.260;2023-06-24T00:13:38;21.60;61.70
54006;DHT22;39919;38.160;-122.260;2023-06-24T00:16:07;21.50;61.90
54006;DHT22;39919;38.160;-122.260;2023-06-24T00:18:40;21.50;61.90
54006;DHT22;39919;38.160;-122.260;2023-06-24T00:21:09;21.50;62.00
54006;DHT22;39919;38.160;-122.260;2023-06-24T00:23:40;21.40;62.00
54006;DHT22;39919;38.160;-122.260;2023-06-24T00:26:11;21.40;62.00
54006;DHT22;39919;38.160;-122.260;2023-06-24T00:28:40;21.40;61.70
54006;DHT22;39919;38.160;-122.260;2023-06-24T00:31:10;21.30;62.10
54006;DHT22;39919;38.160;-122.260;2023-06-24T00:33:39;21.30;62.20
54006;DHT22;39919;38.160;-122.260;2023-06-24T00:36:10;21.30;61.90
54006;DHT22;39919;38.160;-122.260;2023-06-24T00:38:41;21.20;61.90
54006;DHT22;39919;38.160;-122.260;2023-06-24T00:41:13;21.10;62.50
54006;DHT22;39919;38.160;-122.260;2023-06-24T00:43:45;21.10;63.00
54006;DHT22;39919;38.160;-122.260;2023-06-24T00:46:15;21.10;63.00
54006;DHT22;39919;38.160;-122.260;2023-06-24T00:48:46;21.10;62.80
54006;DHT22;39919;38.160;-122.260;2023-06-24T00:51:24;21.10;62.40
54006;DHT22;39919;38.160;-122.260;2023-06-24T00:53:59;21.00;62.50
54006;DHT22;39919;38.160;-122.260;2023-06-24T00:56:31;21.00;62.50
54006;DHT22;39919;38.160;-122.260;2023-06-24T00:59:03;21.00;62.80
54006;DHT22;39919;38.160;-122.260;2023-06-24T01:01:36;20.90;63.00
54006;DHT22;39919;38.160;-122.260;2023-06-24T01:04:09;20.90;63.10
54006;DHT22;39919;38.160;-122.260;2023-06-24T01:06:38;20.90;63.50
54006;DHT22;39919;38.160;-122.260;2023-06-24T01:09:12;20.80;64.10
54006;DHT22;39919;38.160;-122.260;2023-06-24T01:11:45;20.80;64.40
54006;DHT22;39919;38.160;-122.260;2023-06-24T01:14:33;20.70;64.60
54006;DHT22;39919;38.160;-122.260;2023-06-24T01:17:08;20.70;65.00
54006;DHT22;39919;38.160;-122.260;2023-06-24T01:20:07;20.60;65.10
54006;DHT22;39919;38.160;-122.260;2023-06-24T01:23:20;20.50;65.50
54006;DHT22;39919;38.160;-122.260;2023-06-24T01:26:09;20.60;66.10
54006;DHT22;39919;38.160;-122.260;2023-06-24T01:29:09;20.50;66.40
54006;DHT22;39919;38.160;-122.260;2023-06-24T01:31:53;20.50;66.70
54006;DHT22;39919;38.160;-122.260;2023-06-24T01:34:29;20.50;67.00
54006;DHT22;39919;38.160;-122.260;2023-06-24T01:37:14;20.50;67.30
54006;DHT22;39919;38.160;-122.260;2023-06-24T01:39:59;20.50;67.10
54006;DHT22;39919;38.160;-122.260;2023-06-24T01:42:45;20.50;67.00
54006;DHT22;39919;38.160;-122.260;2023-06-24T01:45:23;20.50;67.30
54006;DHT22;39919;38.160;-122.260;2023-06-24T01:47:58;20.50;67.40
54006;DHT22;39919;38.160;-122.260;2023-06-24T01:50:31;20.40;67.20
54006;DHT22;39919;38.160;-122.260;2023-06-24T01:53:02;20.40;67.50
54006;DHT22;39919;38.160;-122.260;2023-06-24T01:55:36;20.40;67.50
54006;DHT22;39919;38.160;-122.260;2023-06-24T01:58:08;20.40;67.00
54006;DHT22;39919;38.160;-122.260;2023-06-24T02:00:47;20.30;65.50
54006;DHT22;39919;38.160;-122.260;2023-06-24T02:03:24;20.30;65.30
54006;DHT22;39919;38.160;-122.260;2023-06-24T02:05:55;20.30;65.10
54006;DHT22;39919;38.160;-122.260;2023-06-24T02:08:25;20.30;65.10
54006;DHT22;39919;38.160;-122.260;2023-06-24T02:10:56;20.30;65.10
54006;DHT22;39919;38.160;-122.260;2023-06-24T02:13:27;20.20;65.40
54006;DHT22;39919;38.160;-122.260;2023-06-24T02:16:04;20.20;66.00
54006;DHT22;39919;38.160;-122.260;2023-06-24T02:18:40;20.20;65.60
54006;DHT22;39919;38.160;-122.260;2023-06-24T02:21:17;20.10;65.50
54006;DHT22;39919;38.160;-122.260;2023-06-24T02:23:47;20.10;65.50
54006;DHT22;39919;38.160;-122.260;2023-06-24T02:26:20;20.00;65.50
54006;DHT22;39919;38.160;-122.260;2023-06-24T02:28:53;20.00;65.40
54006;DHT22;39919;38.160;-122.260;2023-06-24T02:31:26;19.90;65.40
54006;DHT22;39919;38.160;-122.260;2023-06-24T02:33:59;19.80;65.50
54006;DHT22;39919;38.160;-122.260;2023-06-24T02:36:29;19.80;65.50
54006;DHT22;39919;38.160;-122.260;2023-06-24T02:38:58;19.70;65.50
54006;DHT22;39919;38.160;-122.260;2023-06-24T02:41:30;19.60;65.70
54006;DHT22;39919;38.160;-122.260;2023-06-24T02:44:04;19.50;65.70
54006;DHT22;39919;38.160;-122.260;2023-06-24T02:46:38;19.50;65.60
54006;DHT22;39919;38.160;-122.260;2023-06-24T02:49:15;19.40;65.80
54006;DHT22;39919;38.160;-122.260;2023-06-24T02:51:45;19.30;66.10
54006;DHT22;39919;38.160;-122.260;2023-06-24T02:54:15;19.20;66.20
54006;DHT22;39919;38.160;-122.260;2023-06-24T02:56:45;19.20;66.40
54006;DHT22;39919;38.160;-122.260;2023-06-24T02:59:17;19.00;66.70
54006;DHT22;39919;38.160;-122.260;2023-06-24T03:01:49;19.00;66.90
54006;DHT22;39919;38.160;-122.260;2023-06-24T03:04:22;18.90;66.90
54006;DHT22;39919;38.160;-122.260;2023-06-24T03:06:55;18.90;67.20
54006;DHT22;39919;38.160;-122.260;2023-06-24T03:09:26;18.80;67.30
54006;DHT22;39919;38.160;-122.260;2023-06-24T03:11:56;18.70;67.70
54006;DHT22;39919;38.160;-122.260;2023-06-24T03:14:26;18.60;67.80
54006;DHT22;39919;38.160;-122.260;2023-06-24T03:16:55;18.60;67.80
54006;DHT22;39919;38.160;-122.260;2023-06-24T03:19:27;18.40;67.80
54006;DHT22;39919;38.160;-122.260;2023-06-24T03:21:58;18.30;68.30
54006;DHT22;39919;38.160;-122.260;2023-06-24T03:24:30;18.30;68.50
54006;DHT22;39919;38.160;-122.260;2023-06-24T03:26:59;18.10;68.70
54006;DHT22;39919;38.160;-122.260;2023-06-24T03:29:29;18.10;75.10
54006;DHT22;39919;38.160;-122.260;2023-06-24T03:31:59;18.10;71.10
54006;DHT22;39919;38.160;-122.260;2023-06-24T03:34:30;18.00;85.60
54006;DHT22;39919;38.160;-122.260;2023-06-24T03:36:59;17.90;83.00
54006;DHT22;39919;38.160;-122.260;2023-06-24T03:39:28;17.80;74.50
54006;DHT22;39919;38.160;-122.260;2023-06-24T03:42:00;17.70;79.40
54006;DHT22;39919;38.160;-122.260;2023-06-24T03:44:29;17.60;77.80
54006;DHT22;39919;38.160;-122.260;2023-06-24T03:46:59;17.50;70.30
54006;DHT22;39919;38.160;-122.260;2023-06-24T03:49:31;17.40;70.80
54006;DHT22;39919;38.160;-122.260;2023-06-24T03:52:00;17.30;71.00
54006;DHT22;39919;38.160;-122.260;2023-06-24T03:54:30;17.20;71.30
54006;DHT22;39919;38.160;-122.260;2023-06-24T03:57:00;17.10;71.60
54006;DHT22;39919;38.160;-122.260;2023-06-24T03:59:29;17.00;71.70
54006;DHT22;39919;38.160;-122.260;2023-06-24T04:01:58;17.00;71.60
54006;DHT22;39919;38.160;-122.260;2023-06-24T04:04:29;16.90;72.10
54006;DHT22;39919;38.160;-122.260;2023-06-24T04:06:59;16.80;73.00
54006;DHT22;39919;38.160;-122.260;2023-06-24T04:09:29;16.80;72.40
54006;DHT22;39919;38.160;-122.260;2023-06-24T04:12:00;16.70;72.70
54006;DHT22;39919;38.160;-122.260;2023-06-24T04:19:32;16.60;72.90
54006;DHT22;39919;38.160;-122.260;2023-06-24T04:22:01;16.50;73.40
54006;DHT22;39919;38.160;-122.260;2023-06-24T04:24:30;16.40;73.70
54006;DHT22;39919;38.160;-122.260;2023-06-24T04:27:00;16.40;74.30
54006;DHT22;39919;38.160;-122.260;2023-06-24T04:29:29;16.30;74.30
54006;DHT22;39919;38.160;-122.260;2023-06-24T04:31:58;16.30;74.90
54006;DHT22;39919;38.160;-122.260;2023-06-24T04:34:27;16.20;74.60
54006;DHT22;39919;38.160;-122.260;2023-06-24T04:36:58;16.20;74.90
54006;DHT22;39919;38.160;-122.260;2023-06-24T04:39:28;16.10;75.10
54006;DHT22;39919;38.160;-122.260;2023-06-24T04:42:10;16.10;75.20
54006;DHT22;39919;38.160;-122.260;2023-06-24T04:44:41;16.00;75.30
54006;DHT22;39919;38.160;-122.260;2023-06-24T04:47:10;16.00;75.30
54006;DHT22;39919;38.160;-122.260;2023-06-24T04:49:40;16.00;75.30
54006;DHT22;39919;38.160;-122.260;2023-06-24T04:52:11;16.00;75.40
54006;DHT22;39919;38.160;-122.260;2023-06-24T04:54:40;15.90;75.80
54006;DHT22;39919;38.160;-122.260;2023-06-24T04:57:26;15.90;76.00
54006;DHT22;39919;38.160;-122.260;2023-06-24T04:59:59;15.90;76.00
54006;DHT22;39919;38.160;-122.260;2023-06-24T05:04:57;15.70;75.00
54006;DHT22;39919;38.160;-122.260;2023-06-24T05:07:33;15.80;76.00
54006;DHT22;39919;38.160;-122.260;2023-06-24T05:10:02;15.80;76.20
54006;DHT22;39919;38.160;-122.260;2023-06-24T05:12:31;15.70;76.50
54006;DHT22;39919;38.160;-122.260;2023-06-24T05:15:00;15.70;76.60
54006;DHT22;39919;38.160;-122.260;2023-06-24T05:17:30;15.70;76.60
54006;DHT22;39919;38.160;-122.260;2023-06-24T05:19:59;15.70;77.20
54006;DHT22;39919;38.160;-122.260;2023-06-24T05:22:30;15.70;76.70
54006;DHT22;39919;38.160;-122.260;2023-06-24T05:24:59;15.60;76.60
54006;DHT22;39919;38.160;-122.260;2023-06-24T05:27:28;15.60;76.80
54006;DHT22;39919;38.160;-122.260;2023-06-24T05:30:03;15.60;77.00
54006;DHT22;39919;38.160;-122.260;2023-06-24T05:32:32;15.50;76.80
54006;DHT22;39919;38.160;-122.260;2023-06-24T05:35:01;15.50;77.00
54006;DHT22;39919;38.160;-122.260;2023-06-24T05:37:32;15.50;77.00
54006;DHT22;39919;38.160;-122.260;2023-06-24T05:40:02;15.50;77.10
54006;DHT22;39919;38.160;-122.260;2023-06-24T05:42:32;15.40;77.30
54006;DHT22;39919;38.160;-122.260;2023-06-24T15:30:07;16.60;99.90
54006;DHT22;39919;38.160;-122.260;2023-06-24T15:32:37;16.40;99.30
54006;DHT22;39919;38.160;-122.260;2023-06-24T15:35:07;16.40;99.90
54006;DHT22;39919;38.160;-122.260;2023-06-24T15:37:36;16.40;98.80
54006;DHT22;39919;38.160;-122.260;2023-06-24T15:40:07;16.40;99.00
54006;DHT22;39919;38.160;-122.260;2023-06-24T15:42:36;16.50;98.80
54006;DHT22;39919;38.160;-122.260;2023-06-24T15:45:06;16.60;98.00
54006;DHT22;39919;38.160;-122.260;2023-06-24T15:47:37;16.60;90.20
54006;DHT22;39919;38.160;-122.260;2023-06-24T15:50:07;16.60;80.20
54006;DHT22;39919;38.160;-122.260;2023-06-24T15:52:37;16.70;80.20
54006;DHT22;39919;38.160;-122.260;2023-06-24T15:55:07;16.70;80.00
54006;DHT22;39919;38.160;-122.260;2023-06-24T15:57:40;16.90;79.80
54006;DHT22;39919;38.160;-122.260;2023-06-24T16:00:10;16.90;79.50
54006;DHT22;39919;38.160;-122.260;2023-06-24T16:02:41;17.00;79.30
54006;DHT22;39919;38.160;-122.260;2023-06-24T16:05:10;17.00;78.90
54006;DHT22;39919;38.160;-122.260;2023-06-24T16:07:39;17.10;78.70
54006;DHT22;39919;38.160;-122.260;2023-06-24T16:10:11;17.20;78.60
54006;DHT22;39919;38.160;-122.260;2023-06-24T16:12:41;17.20;78.40
54006;DHT22;39919;38.160;-122.260;2023-06-24T16:15:10;17.30;78.40
54006;DHT22;39919;38.160;-122.260;2023-06-24T16:17:41;17.40;78.30
54006;DHT22;39919;38.160;-122.260;2023-06-24T16:20:10;17.40;78.10
54006;DHT22;39919;38.160;-122.260;2023-06-24T16:22:43;17.50;78.00
54006;DHT22;39919;38.160;-122.260;2023-06-24T16:25:12;17.60;77.90
54006;DHT22;39919;38.160;-122.260;2023-06-24T16:27:44;17.70;77.80
54006;DHT22;39919;38.160;-122.260;2023-06-24T16:30:14;17.80;77.80
54006;DHT22;39919;38.160;-122.260;2023-06-24T16:32:45;17.90;77.60
54006;DHT22;39919;38.160;-122.260;2023-06-24T16:35:17;18.00;77.40
54006;DHT22;39919;38.160;-122.260;2023-06-24T16:37:46;18.00;77.10
54006;DHT22;39919;38.160;-122.260;2023-06-24T16:40:15;18.10;76.60
54006;DHT22;39919;38.160;-122.260;2023-06-24T16:42:44;18.20;76.40
54006;DHT22;39919;38.160;-122.260;2023-06-24T16:45:14;18.20;76.40
54006;DHT22;39919;38.160;-122.260;2023-06-24T16:47:45;18.30;76.30
54006;DHT22;39919;38.160;-122.260;2023-06-24T16:50:14;18.30;76.30
54006;DHT22;39919;38.160;-122.260;2023-06-24T16:52:43;18.40;76.10
54006;DHT22;39919;38.160;-122.260;2023-06-24T16:55:12;18.50;75.90
54006;DHT22;39919;38.160;-122.260;2023-06-24T16:57:41;18.60;75.60
54006;DHT22;39919;38.160;-122.260;2023-06-24T17:00:11;18.70;75.20
54006;DHT22;39919;38.160;-122.260;2023-06-24T17:02:41;18.70;74.80
54006;DHT22;39919;38.160;-122.260;2023-06-24T17:05:11;18.80;74.80
54006;DHT22;39919;38.160;-122.260;2023-06-24T17:07:41;18.80;74.50
54006;DHT22;39919;38.160;-122.260;2023-06-24T17:10:10;18.90;74.60
54006;DHT22;39919;38.160;-122.260;2023-06-24T17:12:39;19.00;74.60
54006;DHT22;39919;38.160;-122.260;2023-06-24T17:15:09;19.10;75.10
54006;DHT22;39919;38.160;-122.260;2023-06-24T17:17:41;19.20;74.00
54006;DHT22;39919;38.160;-122.260;2023-06-24T17:20:12;19.30;72.90
54006;DHT22;39919;38.160;-122.260;2023-06-24T17:22:41;19.40;72.90
54006;DHT22;39919;38.160;-122.260;2023-06-24T17:25:10;19.50;72.80
54006;DHT22;39919;38.160;-122.260;2023-06-24T17:27:40;19.60;72.90
54006;DHT22;39919;38.160;-122.260;2023-06-24T17:30:09;19.70;72.70
54006;DHT22;39919;38.160;-122.260;2023-06-24T17:32:39;19.80;72.40
54006;DHT22;39919;38.160;-122.260;2023-06-24T17:35:24;19.90;71.60
54006;DHT22;39919;38.160;-122.260;2023-06-24T17:37:53;20.10;70.90
54006;DHT22;39919;38.160;-122.260;2023-06-24T17:40:22;20.20;70.00
54006;DHT22;39919;38.160;-122.260;2023-06-24T17:42:54;20.30;69.20
54006;DHT22;39919;38.160;-122.260;2023-06-24T17:45:24;20.40;68.80
54006;DHT22;39919;38.160;-122.260;2023-06-24T17:47:56;20.60;68.90
54006;DHT22;39919;38.160;-122.260;2023-06-24T17:50:30;20.80;69.20
54006;DHT22;39919;38.160;-122.260;2023-06-24T17:53:03;21.00;69.10
54006;DHT22;39919;38.160;-122.260;2023-06-24T17:55:32;21.40;69.60
54006;DHT22;39919;38.160;-122.260;2023-06-24T17:58:04;21.80;69.70
54006;DHT22;39919;38.160;-122.260;2023-06-24T18:00:33;22.20;68.40
54006;DHT22;39919;38.160;-122.260;2023-06-24T18:03:06;22.60;67.80
54006;DHT22;39919;38.160;-122.260;2023-06-24T18:05:37;22.90;67.10
54006;DHT22;39919;38.160;-122.260;2023-06-24T18:08:07;23.10;65.70
54006;DHT22;39919;38.160;-122.260;2023-06-24T18:10:36;23.30;65.30
54006;DHT22;39919;38.160;-122.260;2023-06-24T18:13:06;23.40;64.90
54006;DHT22;39919;38.160;-122.260;2023-06-24T18:15:35;23.60;64.70
54006;DHT22;39919;38.160;-122.260;2023-06-24T18:18:05;23.60;64.10
54006;DHT22;39919;38.160;-122.260;2023-06-24T18:20:36;23.80;63.40
54006;DHT22;39919;38.160;-122.260;2023-06-24T18:23:05;23.80;63.40
54006;DHT22;39919;38.160;-122.260;2023-06-24T18:25:34;24.00;63.90
54006;DHT22;39919;38.160;-122.260;2023-06-24T18:28:03;24.20;62.80
54006;DHT22;39919;38.160;-122.260;2023-06-24T18:30:35;24.40;62.80
54006;DHT22;39919;38.160;-122.260;2023-06-24T18:33:04;24.70;62.30
54006;DHT22;39919;38.160;-122.260;2023-06-24T18:35:33;25.10;61.90
54006;DHT22;39919;38.160;-122.260;2023-06-24T18:38:04;25.60;60.80
54006;DHT22;39919;38.160;-122.260;2023-06-24T18:40:34;26.00;60.40
54006;DHT22;39919;38.160;-122.260;2023-06-24T18:48:08;27.40;56.70
54006;DHT22;39919;38.160;-122.260;2023-06-24T18:50:39;28.00;61.10
54006;DHT22;39919;38.160;-122.260;2023-06-24T18:53:10;28.30;63.40
54006;DHT22;39919;38.160;-122.260;2023-06-24T18:55:39;28.70;64.20
54006;DHT22;39919;38.160;-122.260;2023-06-24T18:58:09;29.00;67.00
54006;DHT22;39919;38.160;-122.260;2023-06-24T19:00:42;29.20;69.90
54006;DHT22;39919;38.160;-122.260;2023-06-24T19:03:13;29.50;72.40
54006;DHT22;39919;38.160;-122.260;2023-06-24T19:05:42;29.90;76.60
54006;DHT22;39919;38.160;-122.260;2023-06-24T19:08:13;30.40;84.40
54006;DHT22;39919;38.160;-122.260;2023-06-24T19:10:43;30.70;85.40
54006;DHT22;39919;38.160;-122.260;2023-06-24T19:13:12;31.10;82.90
54006;DHT22;39919;38.160;-122.260;2023-06-24T19:15:41;31.30;80.70
54006;DHT22;39919;38.160;-122.260;2023-06-24T19:18:10;31.50;76.80
54006;DHT22;39919;38.160;-122.260;2023-06-24T19:20:39;31.60;75.90
54006;DHT22;39919;38.160;-122.260;2023-06-24T19:23:13;31.60;75.50
54006;DHT22;39919;38.160;-122.260;2023-06-24T19:25:44;31.70;74.60
54006;DHT22;39919;38.160;-122.260;2023-06-24T19:28:13;31.50;74.10
54006;DHT22;39919;38.160;-122.260;2023-06-24T19:30:43;31.40;72.80
54006;DHT22;39919;38.160;-122.260;2023-06-24T19:33:15;31.20;67.20
54006;DHT22;39919;38.160;-122.260;2023-06-24T19:35:44;31.00;64.50
54006;DHT22;39919;38.160;-122.260;2023-06-24T19:38:15;30.70;58.40
54006;DHT22;39919;38.160;-122.260;2023-06-24T19:40:47;30.40;54.80
54006;DHT22;39919;38.160;-122.260;2023-06-24T19:43:19;30.10;54.30
54006;DHT22;39919;38.160;-122.260;2023-06-24T19:45:51;29.80;57.80
54006;DHT22;39919;38.160;-122.260;2023-06-24T19:48:25;29.40;60.00
54006;DHT22;39919;38.160;-122.260;2023-06-24T19:50:56;29.10;60.70
54006;DHT22;39919;38.160;-122.260;2023-06-24T19:53:27;28.70;50.00
54006;DHT22;39919;38.160;-122.260;2023-06-24T19:58:38;27.80;89.60
54006;DHT22;39919;38.160;-122.260;2023-06-24T20:01:18;27.90;88.10
54006;DHT22;39919;38.160;-122.260;2023-06-24T20:06:28;27.30;90.40
54006;DHT22;39919;38.160;-122.260;2023-06-24T20:09:02;27.10;82.60
54006;DHT22;39919;38.160;-122.260;2023-06-24T20:11:35;26.90;76.40
54006;DHT22;39919;38.160;-122.260;2023-06-24T20:14:04;26.80;75.90
54006;DHT22;39919;38.160;-122.260;2023-06-24T20:16:34;26.60;78.30
54006;DHT22;39919;38.160;-122.260;2023-06-24T20:19:03;26.50;78.10
54006;DHT22;39919;38.160;-122.260;2023-06-24T20:21:32;26.40;79.40
54006;DHT22;39919;38.160;-122.260;2023-06-24T20:24:04;26.20;73.10
54006;DHT22;39919;38.160;-122.260;2023-06-24T20:26:34;26.10;67.00
54006;DHT22;39919;38.160;-122.260;2023-06-24T20:29:03;25.80;66.20
54006;DHT22;39919;38.160;-122.260;2023-06-24T20:31:43;25.70;65.00
54006;DHT22;39919;38.160;-122.260;2023-06-24T20:34:18;25.60;64.50
54006;DHT22;39919;38.160;-122.260;2023-06-24T20:36:49;25.50;64.20
54006;DHT22;39919;38.160;-122.260;2023-06-24T20:39:25;25.40;64.00
54006;DHT22;39919;38.160;-122.260;2023-06-24T20:41:59;25.30;63.80
54006;DHT22;39919;38.160;-122.260;2023-06-24T20:44:30;25.20;64.40
54006;DHT22;39919;38.160;-122.260;2023-06-24T20:47:00;25.00;63.90
54006;DHT22;39919;38.160;-122.260;2023-06-24T20:49:31;24.90;63.90
54006;DHT22;39919;38.160;-122.260;2023-06-24T20:52:01;24.80;64.20
54006;DHT22;39919;38.160;-122.260;2023-06-24T20:54:31;24.70;64.20
54006;DHT22;39919;38.160;-122.260;2023-06-24T20:57:01;24.70;64.30
54006;DHT22;39919;38.160;-122.260;2023-06-24T20:59:30;24.60;64.40
54006;DHT22;39919;38.160;-122.260;2023-06-24T21:02:03;24.50;64.50
54006;DHT22;39919;38.160;-122.260;2023-06-24T21:04:32;24.50;64.70
54006;DHT22;39919;38.160;-122.260;2023-06-24T21:07:01;24.40;64.60
54006;DHT22;39919;38.160;-122.260;2023-06-24T21:09:37;24.30;64.80
54006;DHT22;39919;38.160;-122.260;2023-06-24T21:12:09;24.20;65.00
54006;DHT22;39919;38.160;-122.260;2023-06-24T21:14:42;24.20;65.20
54006;DHT22;39919;38.160;-122.260;2023-06-24T21:17:12;24.10;65.50
54006;DHT22;39919;38.160;-122.260;2023-06-24T21:19:41;24.10;65.50
54006;DHT22;39919;38.160;-122.260;2023-06-24T21:22:11;24.10;65.70
54006;DHT22;39919;38.160;-122.260;2023-06-24T21:24:44;24.00;65.90
54006;DHT22;39919;38.160;-122.260;2023-06-24T21:27:14;23.90;66.00
54006;DHT22;39919;38.160;-122.260;2023-06-24T21:29:46;23.90;66.30
54006;DHT22;39919;38.160;-122.260;2023-06-24T21:32:20;23.80;66.50
54006;DHT22;39919;38.160;-122.260;2023-06-24T21:34:52;23.80;66.50
54006;DHT22;39919;38.160;-122.260;2023-06-24T21:37:22;23.80;66.20
54006;DHT22;39919;38.160;-122.260;2023-06-24T21:39:53;23.80;66.40
54006;DHT22;39919;38.160;-122.260;2023-06-24T21:42:23;23.80;66.60
54006;DHT22;39919;38.160;-122.260;2023-06-24T21:44:53;23.80;66.80
54006;DHT22;39919;38.160;-122.260;2023-06-24T21:47:29;23.70;66.70
54006;DHT22;39919;38.160;-122.260;2023-06-24T21:50:02;23.70;66.80
54006;DHT22;39919;38.160;-122.260;2023-06-24T21:52:32;23.70;67.30
54006;DHT22;39919;38.160;-122.260;2023-06-24T21:55:03;23.70;66.90
54006;DHT22;39919;38.160;-122.260;2023-06-24T21:57:32;23.70;67.10
54006;DHT22;39919;38.160;-122.260;2023-06-24T22:00:04;23.70;67.10
54006;DHT22;39919;38.160;-122.260;2023-06-24T22:02:34;23.80;67.50
54006;DHT22;39919;38.160;-122.260;2023-06-24T22:05:04;23.70;67.10
54006;DHT22;39919;38.160;-122.260;2023-06-24T22:07:38;23.70;66.90
54006;DHT22;39919;38.160;-122.260;2023-06-24T22:10:14;23.70;67.30
54006;DHT22;39919;38.160;-122.260;2023-06-24T22:12:43;23.70;66.70
54006;DHT22;39919;38.160;-122.260;2023-06-24T22:15:16;23.70;66.90
54006;DHT22;39919;38.160;-122.260;2023-06-24T22:17:48;23.60;67.10
54006;DHT22;39919;38.160;-122.260;2023-06-24T22:20:20;23.60;67.30
54006;DHT22;39919;38.160;-122.260;2023-06-24T22:22:54;23.60;67.20
54006;DHT22;39919;38.160;-122.260;2023-06-24T22:25:26;23.60;67.50
54006;DHT22;39919;38.160;-122.260;2023-06-24T22:27:58;23.60;67.40
54006;DHT22;39919;38.160;-122.260;2023-06-24T22:30:27;23.60;67.40
54006;DHT22;39919;38.160;-122.260;2023-06-24T22:32:57;23.60;67.30
54006;DHT22;39919;38.160;-122.260;2023-06-24T22:35:26;23.60;67.50
54006;DHT22;39919;38.160;-122.260;2023-06-24T22:37:58;23.70;67.40
54006;DHT22;39919;38.160;-122.260;2023-06-24T22:40:34;23.70;67.20
54006;DHT22;39919;38.160;-122.260;2023-06-24T22:43:04;23.80;67.10
54006;DHT22;39919;38.160;-122.260;2023-06-24T22:45:34;23.70;67.10
54006;DHT22;39919;38.160;-122.260;2023-06-24T22:48:04;23.70;67.30
54006;DHT22;39919;38.160;-122.260;2023-06-24T22:50:35;23.80;66.80
54006;DHT22;39919;38.160;-122.260;2023-06-24T22:53:10;23.80;66.90
54006;DHT22;39919;38.160;-122.260;2023-06-24T22:55:45;23.80;67.00
54006;DHT22;39919;38.160;-122.260;2023-06-24T22:58:22;23.80;66.90
54006;DHT22;39919;38.160;-122.260;2023-06-24T23:01:00;23.70;66.70
54006;DHT22;39919;38.160;-122.260;2023-06-24T23:03:35;23.70;66.80
54006;DHT22;39919;38.160;-122.260;2023-06-24T23:06:05;23.80;67.00
54006;DHT22;39919;38.160;-122.260;2023-06-24T23:08:35;23.80;67.10
54006;DHT22;39919;38.160;-122.260;2023-06-24T23:11:15;23.70;66.70
54006;DHT22;39919;38.160;-122.260;2023-06-24T23:13:56;23.70;66.70
54006;DHT22;39919;38.160;-122.260;2023-06-24T23:16:26;23.70;66.90
54006;DHT22;39919;38.160;-122.260;2023-06-24T23:19:21;23.70;67.00
54006;DHT22;39919;38.160;-122.260;2023-06-24T23:21:55;23.70;66.70
54006;DHT22;39919;38.160;-122.260;2023-06-24T23:24:35;23.60;67.00
54006;DHT22;39919;38.160;-122.260;2023-06-24T23:27:08;23.60;67.10
54006;DHT22;39919;38.160;-122.260;2023-06-24T23:29:40;23.60;66.70
54006;DHT22;39919;38.160;-122.260;2023-06-24T23:32:12;23.70;66.40
54006;DHT22;39919;38.160;-122.260;2023-06-24T23:34:52;23.70;66.00
54006;DHT22;39919;38.160;-122.260;2023-06-24T23:37:28;23.70;65.30
54006;DHT22;39919;38.160;-122.260;2023-06-24T23:39:59;23.70;65.40
54006;DHT22;39919;38.160;-122.260;2023-06-24T23:42:37;23.70;65.30
54006;DHT22;39919;38.160;-122.260;2023-06-24T23:45:07;23.80;65.20
54006;DHT22;39919;38.160;-122.260;2023-06-24T23:47:49;23.80;65.30
54006;DHT22;39919;38.160;-122.260;2023-06-24T23:50:22;23.80;65.00
54006;DHT22;39919;38.160;-122.260;2023-06-24T23:53:18;23.80;65.00
54006;DHT22;39919;38.160;-122.260;2023-06-24T23:55:47;23.70;65.10
54006;DHT22;39919;38.160;-122.260;2023-06-24T23:58:19;23.80;65.10
